sensor_id;sensor_type;location;lat;lon;timestamp;temperature;humidity
49441;DHT22;35317;51.978;6.296;2022-12-18T00:00:14;-4.90;99.90
49441;DHT22;35317;51.978;6.296;2022-12-18T00:05:15;-5.00;99.90
49441;DHT22;35317;51.978;6.296;2022-12-18T00:10:16;-5.00;99.90
49441;DHT22;35317;51.978;6.296;2022-12-18T00:15:16;-5.10;99.90
49441;DHT22;35317;51.978;6.296;2022-12-18T00:20:17;-5.20;99.90
49441;DHT22;35317;51.978;6.296;2022-12-18T00:25:24;-5.30;99.90
49441;DHT22;35317;51.978;6.296;2022-12-18T00:30:24;-5.30;99.90
49441;DHT22;35317;51.978;6.296;2022-12-18T00:35:25;-5.30;99.90
49441;DHT22;35317;51.978;6.296;2022-12-18T00:40:26;-5.30;99.90
49441;DHT22;35317;51.978;6.296;2022-12-18T00:45:30;-5.40;99.90
49441;DHT22;35317;51.978;6.296;2022-12-18T00:50:31;-5.40;99.90
49441;DHT22;35317;51.978;6.296;2022-12-18T00:55:32;-5.50;99.90
49441;DHT22;35317;51.978;6.296;2022-12-18T01:00:33;-5.60;99.90
49441;DHT22;35317;51.978;6.296;2022-12-18T01:05:34;-5.60;99.90
49441;DHT22;35317;51.978;6.296;2022-12-18T01:10:36;-5.70;99.90
49441;DHT22;35317;51.978;6.296;2022-12-18T01:15:36;-5.80;99.90
49441;DHT22;35317;51.978;6.296;2022-12-18T01:20:38;-5.80;99.90
49441;DHT22;35317;51.978;6.296;2022-12-18T01:25:41;-5.80;99.90
49441;DHT22;35317;51.978;6.296;2022-12-18T01:30:42;-5.80;99.90
49441;DHT22;35317;51.978;6.296;2022-12-18T01:35:43;-5.90;99.90
49441;DHT22;35317;51.978;6.296;2022-12-18T01:40:44;-5.90;99.90
49441;DHT22;35317;51.978;6.296;2022-12-18T01:45:45;-5.90;99.90
49441;DHT22;35317;51.978;6.296;2022-12-18T01:50:45;-5.90;99.90
49441;DHT22;35317;51.978;6.296;2022-12-18T01:55:49;-5.90;99.90
49441;DHT22;35317;51.978;6.296;2022-12-18T02:00:54;-5.90;99.90
49441;DHT22;35317;51.978;6.296;2022-12-18T02:06:16;-5.90;99.90
49441;DHT22;35317;51.978;6.296;2022-12-18T02:11:28;-5.90;99.90
49441;DHT22;35317;51.978;6.296;2022-12-18T02:16:45;-5.80;99.90
49441;DHT22;35317;51.978;6.296;2022-12-18T02:27:24;-5.80;99.90
49441;DHT22;35317;51.978;6.296;2022-12-18T02:32:37;-5.80;99.90
49441;DHT22;35317;51.978;6.296;2022-12-18T02:37:41;-5.80;99.90
49441;DHT22;35317;51.978;6.296;2022-12-18T02:42:44;-5.80;99.90
49441;DHT22;35317;51.978;6.296;2022-12-18T02:47:48;-5.80;99.90
49441;DHT22;35317;51.978;6.296;2022-12-18T02:53:16;-5.90;99.90
49441;DHT22;35317;51.978;6.296;2022-12-18T03:03:55;-5.90;99.90
49441;DHT22;35317;51.978;6.296;2022-12-18T03:09:01;-6.00;99.90
49441;DHT22;35317;51.978;6.296;2022-12-18T03:14:07;-6.00;99.90
49441;DHT22;35317;51.978;6.296;2022-12-18T03:19:13;-6.10;99.90
49441;DHT22;35317;51.978;6.296;2022-12-18T03:24:17;-6.10;99.90
49441;DHT22;35317;51.978;6.296;2022-12-18T03:29:25;-6.10;99.90
49441;DHT22;35317;51.978;6.296;2022-12-18T03:34:32;-6.20;99.90
49441;DHT22;35317;51.978;6.296;2022-12-18T03:39:35;-6.20;99.90
49441;DHT22;35317;51.978;6.296;2022-12-18T03:44:49;-6.20;99.90
49441;DHT22;35317;51.978;6.296;2022-12-18T03:50:07;-6.30;99.90
49441;DHT22;35317;51.978;6.296;2022-12-18T03:55:16;-6.30;99.90
49441;DHT22;35317;51.978;6.296;2022-12-18T04:00:19;-6.40;99.90
49441;DHT22;35317;51.978;6.296;2022-12-18T04:05:21;-6.40;99.90
49441;DHT22;35317;51.978;6.296;2022-12-18T04:10:23;-6.50;99.90
49441;DHT22;35317;51.978;6.296;2022-12-18T04:15:24;-6.50;99.90
49441;DHT22;35317;51.978;6.296;2022-12-18T04:20:25;-6.50;99.90
49441;DHT22;35317;51.978;6.296;2022-12-18T04:25:26;-6.60;99.90
49441;DHT22;35317;51.978;6.296;2022-12-18T04:30:28;-6.60;99.90
49441;DHT22;35317;51.978;6.296;2022-12-18T04:35:29;-6.70;99.90
49441;DHT22;35317;51.978;6.296;2022-12-18T04:40:30;-6.70;99.90
49441;DHT22;35317;51.978;6.296;2022-12-18T04:45:31;-6.70;99.90
49441;DHT22;35317;51.978;6.296;2022-12-18T04:50:32;-6.70;99.90
49441;DHT22;35317;51.978;6.296;2022-12-18T04:55:33;-6.70;99.90
49441;DHT22;35317;51.978;6.296;2022-12-18T05:00:34;-6.60;99.90
49441;DHT22;35317;51.978;6.296;2022-12-18T05:05:35;-6.60;99.90
49441;DHT22;35317;51.978;6.296;2022-12-18T05:10:36;-6.60;99.90
49441;DHT22;35317;51.978;6.296;2022-12-18T05:15:36;-6.50;99.90
49441;DHT22;35317;51.978;6.296;2022-12-18T05:20:37;-6.50;99.90
49441;DHT22;35317;51.978;6.296;2022-12-18T05:25:38;-6.40;99.90
49441;DHT22;35317;51.978;6.296;2022-12-18T05:30:39;-6.40;99.90
49441;DHT22;35317;51.978;6.296;2022-12-18T05:35:43;-6.30;99.90
49441;DHT22;35317;51.978;6.296;2022-12-18T05:40:44;-6.30;99.90
49441;DHT22;35317;51.978;6.296;2022-12-18T05:45:45;-6.30;99.90
49441;DHT22;35317;51.978;6.296;2022-12-18T05:50:47;-6.30;99.90
49441;DHT22;35317;51.978;6.296;2022-12-18T05:55:49;-6.30;99.90
49441;DHT22;35317;51.978;6.296;2022-12-18T06:00:50;-6.40;99.90
49441;DHT22;35317;51.978;6.296;2022-12-18T06:05:51;-6.40;99.90
49441;DHT22;35317;51.978;6.296;2022-12-18T06:10:52;-6.40;99.90
49441;DHT22;35317;51.978;6.296;2022-12-18T06:15:53;-6.50;99.90
49441;DHT22;35317;51.978;6.296;2022-12-18T06:20:58;-6.50;99.90
49441;DHT22;35317;51.978;6.296;2022-12-18T06:26:07;-6.40;99.90
49441;DHT22;35317;51.978;6.296;2022-12-18T06:31:10;-6.50;99.90
49441;DHT22;35317;51.978;6.296;2022-12-18T06:36:12;-6.50;99.90
49441;DHT22;35317;51.978;6.296;2022-12-18T06:41:16;-6.50;99.90
49441;DHT22;35317;51.978;6.296;2022-12-18T06:46:18;-6.50;99.90
49441;DHT22;35317;51.978;6.296;2022-12-18T06:51:21;-6.50;99.90
49441;DHT22;35317;51.978;6.296;2022-12-18T06:56:23;-6.50;99.90
49441;DHT22;35317;51.978;6.296;2022-12-18T07:01:24;-6.50;99.90
49441;DHT22;35317;51.978;6.296;2022-12-18T07:06:25;-6.50;99.90
49441;DHT22;35317;51.978;6.296;2022-12-18T07:11:26;-6.50;99.90
49441;DHT22;35317;51.978;6.296;2022-12-18T07:16:27;-6.50;99.90
49441;DHT22;35317;51.978;6.296;2022-12-18T07:21:31;-6.40;99.90
49441;DHT22;35317;51.978;6.296;2022-12-18T07:26:32;-6.40;99.90
49441;DHT22;35317;51.978;6.296;2022-12-18T07:31:33;-6.30;99.90
49441;DHT22;35317;51.978;6.296;2022-12-18T07:36:34;-6.20;99.90
49441;DHT22;35317;51.978;6.296;2022-12-18T07:41:35;-6.10;99.90
49441;DHT22;35317;51.978;6.296;2022-12-18T07:46:36;-6.10;99.90
49441;DHT22;35317;51.978;6.296;2022-12-18T07:51:37;-6.00;99.90
49441;DHT22;35317;51.978;6.296;2022-12-18T07:56:37;-6.00;99.90
49441;DHT22;35317;51.978;6.296;2022-12-18T08:01:38;-5.90;99.90
49441;DHT22;35317;51.978;6.296;2022-12-18T08:06:39;-5.80;99.90
49441;DHT22;35317;51.978;6.296;2022-12-18T08:11:40;-5.60;99.90
49441;DHT22;35317;51.978;6.296;2022-12-18T08:16:41;-5.40;99.90
49441;DHT22;35317;51.978;6.296;2022-12-18T08:21:41;-5.30;99.90
49441;DHT22;35317;51.978;6.296;2022-12-18T08:26:46;-5.20;99.90
49441;DHT22;35317;51.978;6.296;2022-12-18T08:31:47;-5.00;99.90
49441;DHT22;35317;51.978;6.296;2022-12-18T08:36:48;-5.00;99.90
49441;DHT22;35317;51.978;6.296;2022-12-18T08:41:48;-4.80;99.90
49441;DHT22;35317;51.978;6.296;2022-12-18T08:47:09;-4.60;99.90
49441;DHT22;35317;51.978;6.296;2022-12-18T08:52:10;-4.50;99.90
49441;DHT22;35317;51.978;6.296;2022-12-18T08:57:11;-4.30;99.90
49441;DHT22;35317;51.978;6.296;2022-12-18T09:02:12;-4.10;99.90
49441;DHT22;35317;51.978;6.296;2022-12-18T09:07:13;-3.90;99.90
49441;DHT22;35317;51.978;6.296;2022-12-18T09:12:15;-3.70;99.90
49441;DHT22;35317;51.978;6.296;2022-12-18T09:17:16;-3.70;99.90
49441;DHT22;35317;51.978;6.296;2022-12-18T09:22:16;-3.50;99.90
49441;DHT22;35317;51.978;6.296;2022-12-18T09:27:17;-3.40;99.90
49441;DHT22;35317;51.978;6.296;2022-12-18T09:32:18;-3.20;99.90
49441;DHT22;35317;51.978;6.296;2022-12-18T09:37:18;-3.00;99.90
49441;DHT22;35317;51.978;6.296;2022-12-18T09:42:22;-2.90;99.90
49441;DHT22;35317;51.978;6.296;2022-12-18T09:47:27;-2.70;99.90
49441;DHT22;35317;51.978;6.296;2022-12-18T09:52:37;-2.50;99.90
49441;DHT22;35317;51.978;6.296;2022-12-18T09:57:47;-2.30;99.90
49441;DHT22;35317;51.978;6.296;2022-12-18T10:02:51;-2.10;99.90
49441;DHT22;35317;51.978;6.296;2022-12-18T10:19:21;-1.70;99.90
49441;DHT22;35317;51.978;6.296;2022-12-18T10:29:37;-1.50;99.90
49441;DHT22;35317;51.978;6.296;2022-12-18T10:34:38;-1.40;99.90
49441;DHT22;35317;51.978;6.296;2022-12-18T10:39:39;-1.30;99.90
49441;DHT22;35317;51.978;6.296;2022-12-18T10:44:40;-1.20;99.90
49441;DHT22;35317;51.978;6.296;2022-12-18T10:49:50;-1.00;99.90
49441;DHT22;35317;51.978;6.296;2022-12-18T10:54:55;-0.90;99.90
49441;DHT22;35317;51.978;6.296;2022-12-18T11:00:01;-0.80;99.90
49441;DHT22;35317;51.978;6.296;2022-12-18T11:05:34;-0.60;99.90
49441;DHT22;35317;51.978;6.296;2022-12-18T11:10:38;-0.50;99.90
49441;DHT22;35317;51.978;6.296;2022-12-18T11:15:41;-0.40;99.90
49441;DHT22;35317;51.978;6.296;2022-12-18T11:20:42;-0.30;99.60
49441;DHT22;35317;51.978;6.296;2022-12-18T11:25:52;-0.30;99.70
49441;DHT22;35317;51.978;6.296;2022-12-18T11:31:19;-0.20;99.40
49441;DHT22;35317;51.978;6.296;2022-12-18T11:36:21;-0.10;99.30
49441;DHT22;35317;51.978;6.296;2022-12-18T11:41:27;0.00;99.30
49441;DHT22;35317;51.978;6.296;2022-12-18T11:46:57;0.10;99.10
49441;DHT22;35317;51.978;6.296;2022-12-18T11:52:19;0.10;99.00
49441;DHT22;35317;51.978;6.296;2022-12-18T12:08:49;0.40;98.30
49441;DHT22;35317;51.978;6.296;2022-12-18T12:14:13;0.40;98.10
49441;DHT22;35317;51.978;6.296;2022-12-18T12:30:35;0.60;97.50
49441;DHT22;35317;51.978;6.296;2022-12-18T12:35:44;0.60;97.30
49441;DHT22;35317;51.978;6.296;2022-12-18T12:41:05;0.70;97.20
49441;DHT22;35317;51.978;6.296;2022-12-18T12:46:30;0.70;96.90
49441;DHT22;35317;51.978;6.296;2022-12-18T12:51:38;0.70;96.60
49441;DHT22;35317;51.978;6.296;2022-12-18T12:56:54;0.70;96.50
49441;DHT22;35317;51.978;6.296;2022-12-18T13:02:05;0.80;96.50
49441;DHT22;35317;51.978;6.296;2022-12-18T13:07:24;0.80;96.50
49441;DHT22;35317;51.978;6.296;2022-12-18T13:12:28;0.90;96.40
49441;DHT22;35317;51.978;6.296;2022-12-18T13:17:47;0.90;96.10
49441;DHT22;35317;51.978;6.296;2022-12-18T13:22:49;0.90;96.00
49441;DHT22;35317;51.978;6.296;2022-12-18T13:28:14;0.90;95.80
49441;DHT22;35317;51.978;6.296;2022-12-18T13:43:46;0.80;95.60
49441;DHT22;35317;51.978;6.296;2022-12-18T13:49:03;0.90;95.70
49441;DHT22;35317;51.978;6.296;2022-12-18T13:54:37;0.90;95.60
49441;DHT22;35317;51.978;6.296;2022-12-18T13:59:40;0.90;95.50
49441;DHT22;35317;51.978;6.296;2022-12-18T14:04:41;0.90;95.50
49441;DHT22;35317;51.978;6.296;2022-12-18T14:09:54;0.90;95.40
49441;DHT22;35317;51.978;6.296;2022-12-18T14:14:58;1.00;95.20
49441;DHT22;35317;51.978;6.296;2022-12-18T14:20:00;1.00;95.20
49441;DHT22;35317;51.978;6.296;2022-12-18T14:25:28;1.00;95.20
49441;DHT22;35317;51.978;6.296;2022-12-18T14:30:33;1.00;95.10
49441;DHT22;35317;51.978;6.296;2022-12-18T14:35:39;1.00;95.00
49441;DHT22;35317;51.978;6.296;2022-12-18T14:40:44;1.00;94.90
49441;DHT22;35317;51.978;6.296;2022-12-18T14:45:45;1.00;94.80
49441;DHT22;35317;51.978;6.296;2022-12-18T14:50:55;0.90;94.70
49441;DHT22;35317;51.978;6.296;2022-12-18T14:55:58;1.00;94.80
49441;DHT22;35317;51.978;6.296;2022-12-18T15:00:58;1.00;94.80
49441;DHT22;35317;51.978;6.296;2022-12-18T15:06:16;1.00;94.80
49441;DHT22;35317;51.978;6.296;2022-12-18T15:11:42;1.00;94.80
49441;DHT22;35317;51.978;6.296;2022-12-18T15:16:55;1.00;94.60
49441;DHT22;35317;51.978;6.296;2022-12-18T15:21:56;1.00;94.60
49441;DHT22;35317;51.978;6.296;2022-12-18T15:26:58;0.90;94.60
49441;DHT22;35317;51.978;6.296;2022-12-18T15:32:19;0.90;94.60
49441;DHT22;35317;51.978;6.296;2022-12-18T15:37:20;0.90;94.60
49441;DHT22;35317;51.978;6.296;2022-12-18T15:42:21;0.90;94.60
49441;DHT22;35317;51.978;6.296;2022-12-18T15:47:41;0.90;94.60
49441;DHT22;35317;51.978;6.296;2022-12-18T15:52:47;1.00;94.50
49441;DHT22;35317;51.978;6.296;2022-12-18T15:57:50;1.00;94.50
49441;DHT22;35317;51.978;6.296;2022-12-18T16:02:50;1.00;94.40
49441;DHT22;35317;51.978;6.296;2022-12-18T16:07:51;1.00;94.40
49441;DHT22;35317;51.978;6.296;2022-12-18T16:12:52;1.10;94.40
49441;DHT22;35317;51.978;6.296;2022-12-18T16:17:53;1.10;94.20
49441;DHT22;35317;51.978;6.296;2022-12-18T16:22:54;1.10;94.10
49441;DHT22;35317;51.978;6.296;2022-12-18T16:27:55;1.10;94.10
49441;DHT22;35317;51.978;6.296;2022-12-18T16:32:58;1.10;94.00
49441;DHT22;35317;51.978;6.296;2022-12-18T16:37:58;1.10;94.20
49441;DHT22;35317;51.978;6.296;2022-12-18T16:42:59;1.10;93.90
49441;DHT22;35317;51.978;6.296;2022-12-18T16:48:00;1.20;93.80
49441;DHT22;35317;51.978;6.296;2022-12-18T16:53:01;1.20;93.60
49441;DHT22;35317;51.978;6.296;2022-12-18T16:58:01;1.10;93.50
49441;DHT22;35317;51.978;6.296;2022-12-18T17:03:02;1.20;93.40
49441;DHT22;35317;51.978;6.296;2022-12-18T17:08:03;1.10;93.30
49441;DHT22;35317;51.978;6.296;2022-12-18T17:13:04;1.20;93.10
49441;DHT22;35317;51.978;6.296;2022-12-18T17:18:08;1.20;93.00
49441;DHT22;35317;51.978;6.296;2022-12-18T17:23:08;1.10;93.00
49441;DHT22;35317;51.978;6.296;2022-12-18T17:28:09;1.10;93.10
49441;DHT22;35317;51.978;6.296;2022-12-18T17:33:11;1.10;93.00
49441;DHT22;35317;51.978;6.296;2022-12-18T17:38:12;1.10;93.00
49441;DHT22;35317;51.978;6.296;2022-12-18T17:43:13;1.10;92.80
49441;DHT22;35317;51.978;6.296;2022-12-18T17:48:14;1.10;92.70
49441;DHT22;35317;51.978;6.296;2022-12-18T17:53:15;1.10;92.70
49441;DHT22;35317;51.978;6.296;2022-12-18T17:58:16;1.10;92.80
49441;DHT22;35317;51.978;6.296;2022-12-18T18:03:17;1.10;92.70
49441;DHT22;35317;51.978;6.296;2022-12-18T18:08:18;1.10;92.70
49441;DHT22;35317;51.978;6.296;2022-12-18T18:13:20;1.00;92.60
49441;DHT22;35317;51.978;6.296;2022-12-18T18:18:42;1.10;92.70
49441;DHT22;35317;51.978;6.296;2022-12-18T18:23:43;1.10;92.80
49441;DHT22;35317;51.978;6.296;2022-12-18T18:28:43;1.00;92.50
49441;DHT22;35317;51.978;6.296;2022-12-18T18:33:44;1.00;92.40
49441;DHT22;35317;51.978;6.296;2022-12-18T18:38:45;1.00;92.60
49441;DHT22;35317;51.978;6.296;2022-12-18T18:43:46;1.00;92.30
49441;DHT22;35317;51.978;6.296;2022-12-18T18:48:48;1.00;92.40
49441;DHT22;35317;51.978;6.296;2022-12-18T18:53:51;1.00;92.30
49441;DHT22;35317;51.978;6.296;2022-12-18T18:58:57;1.00;92.40
49441;DHT22;35317;51.978;6.296;2022-12-18T19:03:57;1.00;92.40
49441;DHT22;35317;51.978;6.296;2022-12-18T19:09:01;1.00;92.40
49441;DHT22;35317;51.978;6.296;2022-12-18T19:14:05;1.00;92.40
49441;DHT22;35317;51.978;6.296;2022-12-18T19:19:11;1.00;92.50
49441;DHT22;35317;51.978;6.296;2022-12-18T19:24:12;1.00;92.50
49441;DHT22;35317;51.978;6.296;2022-12-18T19:29:13;1.10;92.50
49441;DHT22;35317;51.978;6.296;2022-12-18T19:34:16;1.10;92.50
49441;DHT22;35317;51.978;6.296;2022-12-18T19:39:17;1.10;92.60
49441;DHT22;35317;51.978;6.296;2022-12-18T19:44:18;1.10;92.60
49441;DHT22;35317;51.978;6.296;2022-12-18T19:49:19;1.10;92.60
49441;DHT22;35317;51.978;6.296;2022-12-18T19:54:20;1.10;92.60
49441;DHT22;35317;51.978;6.296;2022-12-18T19:59:21;1.10;92.60
49441;DHT22;35317;51.978;6.296;2022-12-18T20:04:22;1.10;92.60
49441;DHT22;35317;51.978;6.296;2022-12-18T20:09:23;1.10;92.70
49441;DHT22;35317;51.978;6.296;2022-12-18T20:14:24;1.20;92.70
49441;DHT22;35317;51.978;6.296;2022-12-18T20:19:25;1.20;92.70
49441;DHT22;35317;51.978;6.296;2022-12-18T20:24:26;1.20;92.80
49441;DHT22;35317;51.978;6.296;2022-12-18T20:29:27;1.20;92.70
49441;DHT22;35317;51.978;6.296;2022-12-18T20:34:28;1.20;92.80
49441;DHT22;35317;51.978;6.296;2022-12-18T20:39:29;1.20;92.70
49441;DHT22;35317;51.978;6.296;2022-12-18T20:44:30;1.30;92.80
49441;DHT22;35317;51.978;6.296;2022-12-18T20:49:31;1.30;92.80
49441;DHT22;35317;51.978;6.296;2022-12-18T20:54:32;1.30;92.90
49441;DHT22;35317;51.978;6.296;2022-12-18T20:59:33;1.20;92.90
49441;DHT22;35317;51.978;6.296;2022-12-18T21:04:34;1.20;93.20
49441;DHT22;35317;51.978;6.296;2022-12-18T21:09:34;1.20;93.30
49441;DHT22;35317;51.978;6.296;2022-12-18T21:14:35;1.20;93.40
49441;DHT22;35317;51.978;6.296;2022-12-18T21:19:36;1.20;93.60
49441;DHT22;35317;51.978;6.296;2022-12-18T21:24:37;1.20;93.80
49441;DHT22;35317;51.978;6.296;2022-12-18T21:29:38;1.20;94.00
49441;DHT22;35317;51.978;6.296;2022-12-18T21:34:39;1.20;94.20
49441;DHT22;35317;51.978;6.296;2022-12-18T21:39:40;1.20;94.40
49441;DHT22;35317;51.978;6.296;2022-12-18T21:44:41;1.10;94.50
49441;DHT22;35317;51.978;6.296;2022-12-18T21:49:42;1.10;94.70
49441;DHT22;35317;51.978;6.296;2022-12-18T21:54:44;1.10;94.90
49441;DHT22;35317;51.978;6.296;2022-12-18T21:59:45;1.10;95.10
49441;DHT22;35317;51.978;6.296;2022-12-18T22:31:16;1.20;95.90
49441;DHT22;35317;51.978;6.296;2022-12-18T22:36:16;1.20;96.20
49441;DHT22;35317;51.978;6.296;2022-12-18T22:41:17;1.20;96.60
49441;DHT22;35317;51.978;6.296;2022-12-18T22:46:18;1.20;96.50
49441;DHT22;35317;51.978;6.296;2022-12-18T22:51:23;1.20;96.60
49441;DHT22;35317;51.978;6.296;2022-12-18T22:56:23;1.30;96.70
49441;DHT22;35317;51.978;6.296;2022-12-18T23:01:27;1.20;96.90
49441;DHT22;35317;51.978;6.296;2022-12-18T23:06:29;1.30;97.10
49441;DHT22;35317;51.978;6.296;2022-12-18T23:11:29;1.30;97.20
49441;DHT22;35317;51.978;6.296;2022-12-18T23:16:30;1.20;97.40
49441;DHT22;35317;51.978;6.296;2022-12-18T23:21:31;1.30;97.50
49441;DHT22;35317;51.978;6.296;2022-12-18T23:26:32;1.30;97.60
49441;DHT22;35317;51.978;6.296;2022-12-18T23:31:35;1.30;97.80
49441;DHT22;35317;51.978;6.296;2022-12-18T23:36:37;1.30;98.00
49441;DHT22;35317;51.978;6.296;2022-12-18T23:41:38;1.30;98.10
49441;DHT22;35317;51.978;6.296;2022-12-18T23:46:39;1.40;98.30
49441;DHT22;35317;51.978;6.296;2022-12-18T23:51:40;1.40;98.40
49441;DHT22;35317;51.978;6.296;2022-12-18T23:56:40;1.40;98.90
